sensor_id;sensor_type;location;lat;lon;timestamp;pressure;altitude;pressure_sealevel;temperature;humidity
216;BME280;64590;48.81286795;9.14184224;2022-12-20T00:00:49;98810.41;;;3.32;83.41
216;BME280;64590;48.81286795;9.14184224;2022-12-20T00:03:16;98815.94;;;3.45;83.06
216;BME280;64590;48.81286795;9.14184224;2022-12-20T00:05:44;98811.72;;;3.26;83.29
216;BME280;64590;48.81286795;9.14184224;2022-12-20T00:08:11;98808.84;;;3.44;83.13
216;BME280;64590;48.81286795;9.14184224;2022-12-20T00:10:40;98817.34;;;3.30;83.50
216;BME280;64590;48.81286795;9.14184224;2022-12-20T00:13:07;98797.09;;;3.43;83.10
216;BME280;64590;48.81286795;9.14184224;2022-12-20T00:15:34;98810.06;;;3.34;83.61
216;BME280;64590;48.81286795;9.14184224;2022-12-20T00:18:01;98795.19;;;3.35;83.36
216;BME280;64590;48.81286795;9.14184224;2022-12-20T00:20:28;98798.84;;;3.18;83.74
216;BME280;64590;48.81286795;9.14184224;2022-12-20T00:22:56;98795.69;;;3.58;82.16
216;BME280;64590;48.81286795;9.14184224;2022-12-20T00:25:22;98778.13;;;3.29;83.50
216;BME280;64590;48.81286795;9.14184224;2022-12-20T00:27:50;98779.63;;;3.48;83.83
216;BME280;64590;48.81286795;9.14184224;2022-12-20T00:30:17;98778.28;;;3.33;84.04
216;BME280;64590;48.81286795;9.14184224;2022-12-20T00:32:44;98776.91;;;3.18;84.17
216;BME280;64590;48.81286795;9.14184224;2022-12-20T00:35:12;98784.09;;;3.31;83.90
216;BME280;64590;48.81286795;9.14184224;2022-12-20T00:37:39;98774.00;;;3.23;84.60
216;BME280;64590;48.81286795;9.14184224;2022-12-20T00:40:08;98778.47;;;3.28;84.33
216;BME280;64590;48.81286795;9.14184224;2022-12-20T00:42:35;98771.50;;;3.51;83.17
216;BME280;64590;48.81286795;9.14184224;2022-12-20T00:45:04;98780.94;;;3.83;82.00
216;BME280;64590;48.81286795;9.14184224;2022-12-20T00:47:30;98785.41;;;3.88;81.75
216;BME280;64590;48.81286795;9.14184224;2022-12-20T00:49:57;98780.63;;;3.97;81.57
216;BME280;64590;48.81286795;9.14184224;2022-12-20T00:52:24;98778.28;;;3.75;82.93
216;BME280;64590;48.81286795;9.14184224;2022-12-20T00:54:51;98784.69;;;3.79;82.38
216;BME280;64590;48.81286795;9.14184224;2022-12-20T00:57:19;98776.88;;;4.02;81.09
216;BME280;64590;48.81286795;9.14184224;2022-12-20T00:59:45;98761.84;;;3.87;82.03
216;BME280;64590;48.81286795;9.14184224;2022-12-20T01:02:12;98777.03;;;3.84;82.28
216;BME280;64590;48.81286795;9.14184224;2022-12-20T01:04:39;98784.91;;;3.74;82.29
216;BME280;64590;48.81286795;9.14184224;2022-12-20T01:07:07;98781.97;;;3.58;83.19
216;BME280;64590;48.81286795;9.14184224;2022-12-20T01:09:34;98777.13;;;3.76;82.55
216;BME280;64590;48.81286795;9.14184224;2022-12-20T01:12:00;98780.78;;;3.80;82.19
216;BME280;64590;48.81286795;9.14184224;2022-12-20T01:14:28;98794.13;;;3.69;82.67
216;BME280;64590;48.81286795;9.14184224;2022-12-20T01:16:55;98796.41;;;3.67;82.53
216;BME280;64590;48.81286795;9.14184224;2022-12-20T01:19:23;98801.63;;;3.60;82.21
216;BME280;64590;48.81286795;9.14184224;2022-12-20T01:21:49;98810.94;;;3.67;82.25
216;BME280;64590;48.81286795;9.14184224;2022-12-20T01:24:17;98796.81;;;3.78;82.18
216;BME280;64590;48.81286795;9.14184224;2022-12-20T01:26:45;98801.94;;;4.00;80.98
216;BME280;64590;48.81286795;9.14184224;2022-12-20T01:29:12;98803.56;;;3.80;81.95
216;BME280;64590;48.81286795;9.14184224;2022-12-20T01:31:42;98788.75;;;3.73;82.67
216;BME280;64590;48.81286795;9.14184224;2022-12-20T01:34:10;98785.16;;;3.60;83.39
216;BME280;64590;48.81286795;9.14184224;2022-12-20T01:36:37;98786.66;;;3.57;82.95
216;BME280;64590;48.81286795;9.14184224;2022-12-20T01:39:05;98784.22;;;3.56;82.75
216;BME280;64590;48.81286795;9.14184224;2022-12-20T01:41:34;98777.34;;;3.50;83.10
216;BME280;64590;48.81286795;9.14184224;2022-12-20T01:44:03;98780.28;;;3.65;81.91
216;BME280;64590;48.81286795;9.14184224;2022-12-20T01:46:31;98780.75;;;3.67;81.91
216;BME280;64590;48.81286795;9.14184224;2022-12-20T01:49:04;98774.47;;;3.67;81.58
216;BME280;64590;48.81286795;9.14184224;2022-12-20T01:51:35;98773.19;;;3.44;82.61
216;BME280;64590;48.81286795;9.14184224;2022-12-20T01:54:05;98772.91;;;3.36;83.51
216;BME280;64590;48.81286795;9.14184224;2022-12-20T01:56:33;98777.00;;;3.51;83.74
216;BME280;64590;48.81286795;9.14184224;2022-12-20T01:59:01;98777.19;;;3.67;82.80
216;BME280;64590;48.81286795;9.14184224;2022-12-20T02:01:27;98777.13;;;3.76;82.09
216;BME280;64590;48.81286795;9.14184224;2022-12-20T02:03:55;98745.91;;;3.80;82.03
216;BME280;64590;48.81286795;9.14184224;2022-12-20T02:06:25;98750.41;;;3.64;82.53
216;BME280;64590;48.81286795;9.14184224;2022-12-20T02:08:57;98750.00;;;3.74;82.74
216;BME280;64590;48.81286795;9.14184224;2022-12-20T02:11:46;98754.38;;;3.75;82.09
216;BME280;64590;48.81286795;9.14184224;2022-12-20T02:14:25;98739.03;;;3.53;83.14
216;BME280;64590;48.81286795;9.14184224;2022-12-20T02:17:09;98741.38;;;3.63;83.38
216;BME280;64590;48.81286795;9.14184224;2022-12-20T02:20:08;98746.53;;;3.44;83.86
216;BME280;64590;48.81286795;9.14184224;2022-12-20T02:22:56;98747.00;;;3.67;82.61
216;BME280;64590;48.81286795;9.14184224;2022-12-20T02:25:42;98737.28;;;3.69;82.88
216;BME280;64590;48.81286795;9.14184224;2022-12-20T02:28:39;98738.97;;;3.95;82.82
216;BME280;64590;48.81286795;9.14184224;2022-12-20T02:31:12;98726.97;;;4.00;82.40
216;BME280;64590;48.81286795;9.14184224;2022-12-20T02:33:45;98728.09;;;3.86;83.08
216;BME280;64590;48.81286795;9.14184224;2022-12-20T02:36:13;98724.78;;;3.93;81.71
216;BME280;64590;48.81286795;9.14184224;2022-12-20T02:38:40;98736.22;;;3.95;81.36
216;BME280;64590;48.81286795;9.14184224;2022-12-20T02:41:11;98735.19;;;3.87;83.17
216;BME280;64590;48.81286795;9.14184224;2022-12-20T02:43:42;98717.09;;;3.86;82.45
216;BME280;64590;48.81286795;9.14184224;2022-12-20T02:46:28;98709.56;;;3.83;83.49
216;BME280;64590;48.81286795;9.14184224;2022-12-20T02:49:00;98716.00;;;3.66;82.97
216;BME280;64590;48.81286795;9.14184224;2022-12-20T02:51:28;98732.41;;;3.75;82.88
216;BME280;64590;48.81286795;9.14184224;2022-12-20T02:53:58;98715.44;;;3.73;83.00
216;BME280;64590;48.81286795;9.14184224;2022-12-20T02:56:27;98707.00;;;3.78;82.47
216;BME280;64590;48.81286795;9.14184224;2022-12-20T02:59:01;98694.84;;;4.12;81.45
216;BME280;64590;48.81286795;9.14184224;2022-12-20T03:01:32;98701.13;;;4.25;81.41
216;BME280;64590;48.81286795;9.14184224;2022-12-20T03:04:00;98698.97;;;4.31;81.24
216;BME280;64590;48.81286795;9.14184224;2022-12-20T03:06:27;98693.59;;;4.59;80.59
216;BME280;64590;48.81286795;9.14184224;2022-12-20T03:08:55;98687.41;;;4.49;80.89
216;BME280;64590;48.81286795;9.14184224;2022-12-20T03:11:25;98689.38;;;4.61;79.97
216;BME280;64590;48.81286795;9.14184224;2022-12-20T03:13:52;98689.34;;;4.73;79.59
216;BME280;64590;48.81286795;9.14184224;2022-12-20T03:16:19;98695.56;;;4.70;79.76
216;BME280;64590;48.81286795;9.14184224;2022-12-20T03:18:47;98704.47;;;4.67;79.86
216;BME280;64590;48.81286795;9.14184224;2022-12-20T03:21:13;98684.44;;;4.79;79.30
216;BME280;64590;48.81286795;9.14184224;2022-12-20T03:23:40;98696.56;;;4.66;79.51
216;BME280;64590;48.81286795;9.14184224;2022-12-20T03:26:07;98687.41;;;4.74;79.18
216;BME280;64590;48.81286795;9.14184224;2022-12-20T03:28:42;98680.88;;;4.78;79.31
216;BME280;64590;48.81286795;9.14184224;2022-12-20T03:31:12;98671.38;;;4.64;79.79
216;BME280;64590;48.81286795;9.14184224;2022-12-20T03:33:46;98662.09;;;4.68;79.82
216;BME280;64590;48.81286795;9.14184224;2022-12-20T03:36:13;98667.59;;;4.80;79.47
216;BME280;64590;48.81286795;9.14184224;2022-12-20T03:38:40;98668.59;;;4.76;79.39
216;BME280;64590;48.81286795;9.14184224;2022-12-20T03:41:07;98671.47;;;4.67;79.55
216;BME280;64590;48.81286795;9.14184224;2022-12-20T03:43:34;98671.94;;;4.81;79.31
216;BME280;64590;48.81286795;9.14184224;2022-12-20T03:46:01;98691.31;;;4.73;79.33
216;BME280;64590;48.81286795;9.14184224;2022-12-20T03:48:33;98688.69;;;4.64;80.36
216;BME280;64590;48.81286795;9.14184224;2022-12-20T03:51:01;98672.16;;;4.76;79.84
216;BME280;64590;48.81286795;9.14184224;2022-12-20T03:53:28;98670.09;;;4.73;79.84
216;BME280;64590;48.81286795;9.14184224;2022-12-20T03:55:55;98671.59;;;4.71;80.18
216;BME280;64590;48.81286795;9.14184224;2022-12-20T03:58:22;98668.00;;;4.95;79.39
216;BME280;64590;48.81286795;9.14184224;2022-12-20T04:00:49;98667.31;;;4.98;79.45
216;BME280;64590;48.81286795;9.14184224;2022-12-20T04:03:38;98668.63;;;4.64;80.78
216;BME280;64590;48.81286795;9.14184224;2022-12-20T04:06:06;98663.47;;;4.62;80.22
216;BME280;64590;48.81286795;9.14184224;2022-12-20T04:08:33;98660.84;;;4.41;81.10
216;BME280;64590;48.81286795;9.14184224;2022-12-20T04:11:00;98662.34;;;4.63;80.15
216;BME280;64590;48.81286795;9.14184224;2022-12-20T04:13:49;98654.66;;;4.57;80.50
216;BME280;64590;48.81286795;9.14184224;2022-12-20T04:16:18;98644.78;;;4.68;79.96
216;BME280;64590;48.81286795;9.14184224;2022-12-20T04:18:46;98642.41;;;4.54;80.92
216;BME280;64590;48.81286795;9.14184224;2022-12-20T04:21:15;98649.88;;;4.94;79.14
216;BME280;64590;48.81286795;9.14184224;2022-12-20T04:23:46;98664.50;;;4.58;80.52
216;BME280;64590;48.81286795;9.14184224;2022-12-20T04:26:12;98646.75;;;4.43;81.22
216;BME280;64590;48.81286795;9.14184224;2022-12-20T04:28:39;98656.13;;;4.66;79.62
216;BME280;64590;48.81286795;9.14184224;2022-12-20T04:31:09;98659.78;;;4.82;79.12
216;BME280;64590;48.81286795;9.14184224;2022-12-20T04:33:37;98665.06;;;4.51;80.40
216;BME280;64590;48.81286795;9.14184224;2022-12-20T04:36:05;98658.22;;;4.69;79.61
216;BME280;64590;48.81286795;9.14184224;2022-12-20T04:38:34;98651.22;;;4.47;81.03
216;BME280;64590;48.81286795;9.14184224;2022-12-20T04:41:01;98638.63;;;4.22;81.75
216;BME280;64590;48.81286795;9.14184224;2022-12-20T04:43:37;98633.84;;;4.31;81.64
216;BME280;64590;48.81286795;9.14184224;2022-12-20T04:46:05;98633.91;;;4.59;80.85
216;BME280;64590;48.81286795;9.14184224;2022-12-20T04:48:31;98635.28;;;4.65;80.53
216;BME280;64590;48.81286795;9.14184224;2022-12-20T04:50:58;98632.59;;;4.93;79.68
216;BME280;64590;48.81286795;9.14184224;2022-12-20T04:53:25;98623.16;;;5.06;79.09
216;BME280;64590;48.81286795;9.14184224;2022-12-20T04:56:11;98622.09;;;5.11;78.80
216;BME280;64590;48.81286795;9.14184224;2022-12-20T04:58:38;98625.84;;;4.91;79.63
216;BME280;64590;48.81286795;9.14184224;2022-12-20T05:01:08;98624.69;;;5.20;78.35
216;BME280;64590;48.81286795;9.14184224;2022-12-20T05:03:42;98632.66;;;5.09;78.41
216;BME280;64590;48.81286795;9.14184224;2022-12-20T05:06:09;98627.59;;;5.11;78.45
216;BME280;64590;48.81286795;9.14184224;2022-12-20T05:08:39;98621.38;;;5.26;77.96
216;BME280;64590;48.81286795;9.14184224;2022-12-20T05:11:06;98612.53;;;5.21;78.11
216;BME280;64590;48.81286795;9.14184224;2022-12-20T05:13:34;98612.69;;;5.12;78.63
216;BME280;64590;48.81286795;9.14184224;2022-12-20T05:16:00;98606.94;;;4.89;79.05
216;BME280;64590;48.81286795;9.14184224;2022-12-20T05:18:31;98612.81;;;4.75;80.39
216;BME280;64590;48.81286795;9.14184224;2022-12-20T05:21:02;98609.53;;;4.70;80.54
216;BME280;64590;48.81286795;9.14184224;2022-12-20T05:23:49;98597.84;;;5.01;79.31
216;BME280;64590;48.81286795;9.14184224;2022-12-20T05:26:53;98603.00;;;5.02;78.86
216;BME280;64590;48.81286795;9.14184224;2022-12-20T05:29:21;98604.56;;;4.75;80.03
216;BME280;64590;48.81286795;9.14184224;2022-12-20T05:31:48;98606.66;;;4.66;80.43
216;BME280;64590;48.81286795;9.14184224;2022-12-20T05:34:15;98609.56;;;4.86;79.66
216;BME280;64590;48.81286795;9.14184224;2022-12-20T05:36:46;98603.00;;;5.02;79.21
216;BME280;64590;48.81286795;9.14184224;2022-12-20T05:39:13;98597.31;;;4.95;79.34
216;BME280;64590;48.81286795;9.14184224;2022-12-20T05:41:41;98591.41;;;5.09;78.94
216;BME280;64590;48.81286795;9.14184224;2022-12-20T05:44:09;98590.88;;;4.91;79.36
216;BME280;64590;48.81286795;9.14184224;2022-12-20T05:46:41;98583.88;;;4.94;79.42
216;BME280;64590;48.81286795;9.14184224;2022-12-20T05:49:13;98579.94;;;4.67;80.38
216;BME280;64590;48.81286795;9.14184224;2022-12-20T05:51:40;98580.75;;;4.67;80.68
216;BME280;64590;48.81286795;9.14184224;2022-12-20T05:54:16;98567.63;;;4.61;80.94
216;BME280;64590;48.81286795;9.14184224;2022-12-20T05:56:54;98564.69;;;4.81;80.03
216;BME280;64590;48.81286795;9.14184224;2022-12-20T05:59:29;98570.03;;;4.90;79.88
216;BME280;64590;48.81286795;9.14184224;2022-12-20T06:01:57;98577.06;;;5.03;79.05
216;BME280;64590;48.81286795;9.14184224;2022-12-20T06:04:24;98561.38;;;4.76;80.12
216;BME280;64590;48.81286795;9.14184224;2022-12-20T06:06:51;98568.09;;;4.91;79.64
216;BME280;64590;48.81286795;9.14184224;2022-12-20T06:09:18;98573.50;;;4.87;79.73
216;BME280;64590;48.81286795;9.14184224;2022-12-20T06:11:58;98586.72;;;4.69;80.86
216;BME280;64590;48.81286795;9.14184224;2022-12-20T06:14:26;98585.81;;;4.65;80.07
216;BME280;64590;48.81286795;9.14184224;2022-12-20T06:16:54;98586.41;;;4.46;81.42
216;BME280;64590;48.81286795;9.14184224;2022-12-20T06:19:23;98582.53;;;4.47;81.65
216;BME280;64590;48.81286795;9.14184224;2022-12-20T06:21:52;98583.81;;;4.38;81.63
216;BME280;64590;48.81286795;9.14184224;2022-12-20T06:24:26;98583.13;;;4.29;81.32
216;BME280;64590;48.81286795;9.14184224;2022-12-20T06:26:53;98584.50;;;4.35;81.52
216;BME280;64590;48.81286795;9.14184224;2022-12-20T06:29:20;98576.84;;;4.80;79.75
216;BME280;64590;48.81286795;9.14184224;2022-12-20T06:31:52;98584.03;;;4.45;80.76
216;BME280;64590;48.81286795;9.14184224;2022-12-20T06:34:19;98586.28;;;4.43;81.02
216;BME280;64590;48.81286795;9.14184224;2022-12-20T06:36:47;98590.53;;;4.40;81.38
216;BME280;64590;48.81286795;9.14184224;2022-12-20T06:39:19;98582.00;;;4.17;81.85
216;BME280;64590;48.81286795;9.14184224;2022-12-20T06:41:53;98593.66;;;4.14;82.13
216;BME280;64590;48.81286795;9.14184224;2022-12-20T06:44:20;98596.06;;;4.16;82.19
216;BME280;64590;48.81286795;9.14184224;2022-12-20T06:46:49;98599.16;;;4.14;82.59
216;BME280;64590;48.81286795;9.14184224;2022-12-20T06:49:15;98599.59;;;4.04;82.34
216;BME280;64590;48.81286795;9.14184224;2022-12-20T06:51:42;98593.44;;;4.19;81.52
216;BME280;64590;48.81286795;9.14184224;2022-12-20T06:54:11;98594.78;;;4.25;81.42
216;BME280;64590;48.81286795;9.14184224;2022-12-20T06:56:38;98594.69;;;4.22;81.84
216;BME280;64590;48.81286795;9.14184224;2022-12-20T06:59:07;98593.09;;;4.09;82.37
216;BME280;64590;48.81286795;9.14184224;2022-12-20T07:01:34;98580.13;;;4.34;80.58
216;BME280;64590;48.81286795;9.14184224;2022-12-20T07:04:00;98581.41;;;4.24;81.32
216;BME280;64590;48.81286795;9.14184224;2022-12-20T07:06:27;98586.34;;;4.18;81.19
216;BME280;64590;48.81286795;9.14184224;2022-12-20T07:08:54;98583.78;;;4.25;80.95
216;BME280;64590;48.81286795;9.14184224;2022-12-20T07:11:22;98589.53;;;4.20;81.37
216;BME280;64590;48.81286795;9.14184224;2022-12-20T07:13:53;98586.44;;;4.22;81.57
216;BME280;64590;48.81286795;9.14184224;2022-12-20T07:16:20;98588.84;;;4.11;82.05
216;BME280;64590;48.81286795;9.14184224;2022-12-20T07:18:48;98589.63;;;4.48;81.39
216;BME280;64590;48.81286795;9.14184224;2022-12-20T07:21:15;98592.28;;;4.85;79.68
216;BME280;64590;48.81286795;9.14184224;2022-12-20T07:23:43;98588.38;;;4.46;81.19
216;BME280;64590;48.81286795;9.14184224;2022-12-20T07:26:09;98581.56;;;4.68;80.32
216;BME280;64590;48.81286795;9.14184224;2022-12-20T07:28:39;98587.47;;;4.82;80.02
216;BME280;64590;48.81286795;9.14184224;2022-12-20T07:31:05;98583.91;;;4.41;81.73
216;BME280;64590;48.81286795;9.14184224;2022-12-20T07:33:32;98582.69;;;4.79;79.86
216;BME280;64590;48.81286795;9.14184224;2022-12-20T07:36:00;98587.84;;;4.68;80.15
216;BME280;64590;48.81286795;9.14184224;2022-12-20T07:38:27;98580.22;;;4.62;80.46
216;BME280;64590;48.81286795;9.14184224;2022-12-20T07:40:54;98591.78;;;4.55;81.20
216;BME280;64590;48.81286795;9.14184224;2022-12-20T07:43:22;98584.38;;;4.83;79.97
216;BME280;64590;48.81286795;9.14184224;2022-12-20T07:45:54;98582.53;;;5.16;78.53
216;BME280;64590;48.81286795;9.14184224;2022-12-20T07:48:21;98580.53;;;5.00;79.38
216;BME280;64590;48.81286795;9.14184224;2022-12-20T07:50:50;98574.53;;;4.82;80.43
216;BME280;64590;48.81286795;9.14184224;2022-12-20T07:53:18;98578.63;;;4.61;80.22
216;BME280;64590;48.81286795;9.14184224;2022-12-20T07:55:45;98586.88;;;4.61;80.63
216;BME280;64590;48.81286795;9.14184224;2022-12-20T07:58:12;98576.75;;;4.65;80.65
216;BME280;64590;48.81286795;9.14184224;2022-12-20T08:00:40;98579.00;;;4.87;79.56
216;BME280;64590;48.81286795;9.14184224;2022-12-20T08:03:12;98588.38;;;4.86;79.83
216;BME280;64590;48.81286795;9.14184224;2022-12-20T08:05:42;98589.66;;;4.89;79.69
216;BME280;64590;48.81286795;9.14184224;2022-12-20T08:08:11;98581.31;;;4.73;80.54
216;BME280;64590;48.81286795;9.14184224;2022-12-20T08:10:38;98584.28;;;4.80;80.35
216;BME280;64590;48.81286795;9.14184224;2022-12-20T08:13:06;98572.06;;;4.65;81.41
216;BME280;64590;48.81286795;9.14184224;2022-12-20T08:15:33;98583.28;;;4.72;80.89
216;BME280;64590;48.81286795;9.14184224;2022-12-20T08:18:01;98582.06;;;4.86;80.94
216;BME280;64590;48.81286795;9.14184224;2022-12-20T08:20:29;98579.22;;;5.10;79.52
216;BME280;64590;48.81286795;9.14184224;2022-12-20T08:22:56;98573.88;;;5.29;79.08
216;BME280;64590;48.81286795;9.14184224;2022-12-20T08:25:22;98562.84;;;5.14;79.74
216;BME280;64590;48.81286795;9.14184224;2022-12-20T08:27:49;98568.19;;;5.22;79.19
216;BME280;64590;48.81286795;9.14184224;2022-12-20T08:30:17;98560.25;;;5.49;77.75
216;BME280;64590;48.81286795;9.14184224;2022-12-20T08:32:45;98554.34;;;5.34;78.49
216;BME280;64590;48.81286795;9.14184224;2022-12-20T08:35:12;98556.97;;;5.15;79.32
216;BME280;64590;48.81286795;9.14184224;2022-12-20T08:37:40;98553.75;;;5.41;78.07
216;BME280;64590;48.81286795;9.14184224;2022-12-20T08:40:08;98541.59;;;5.42;78.26
216;BME280;64590;48.81286795;9.14184224;2022-12-20T08:42:34;98543.44;;;5.54;78.00
216;BME280;64590;48.81286795;9.14184224;2022-12-20T08:45:01;98546.44;;;5.33;78.64
216;BME280;64590;48.81286795;9.14184224;2022-12-20T08:47:28;98544.69;;;5.41;79.01
216;BME280;64590;48.81286795;9.14184224;2022-12-20T08:49:55;98544.59;;;5.53;78.79
216;BME280;64590;48.81286795;9.14184224;2022-12-20T08:52:22;98534.31;;;5.65;77.80
216;BME280;64590;48.81286795;9.14184224;2022-12-20T08:54:50;98532.09;;;5.71;77.45
216;BME280;64590;48.81286795;9.14184224;2022-12-20T08:57:16;98539.53;;;5.55;78.02
216;BME280;64590;48.81286795;9.14184224;2022-12-20T08:59:43;98530.75;;;5.49;78.80
216;BME280;64590;48.81286795;9.14184224;2022-12-20T09:02:09;98535.78;;;5.47;79.53
216;BME280;64590;48.81286795;9.14184224;2022-12-20T09:04:36;98530.28;;;5.47;79.64
216;BME280;64590;48.81286795;9.14184224;2022-12-20T09:07:03;98534.56;;;5.60;78.59
216;BME280;64590;48.81286795;9.14184224;2022-12-20T09:09:29;98522.31;;;6.05;76.55
216;BME280;64590;48.81286795;9.14184224;2022-12-20T09:11:58;98534.50;;;5.57;78.35
216;BME280;64590;48.81286795;9.14184224;2022-12-20T09:14:24;98528.00;;;5.49;79.03
216;BME280;64590;48.81286795;9.14184224;2022-12-20T09:16:51;98520.09;;;5.95;77.22
216;BME280;64590;48.81286795;9.14184224;2022-12-20T09:19:17;98516.56;;;5.94;77.18
216;BME280;64590;48.81286795;9.14184224;2022-12-20T09:21:44;98504.47;;;5.83;77.93
216;BME280;64590;48.81286795;9.14184224;2022-12-20T09:24:11;98497.00;;;5.84;77.35
216;BME280;64590;48.81286795;9.14184224;2022-12-20T09:26:37;98517.94;;;5.88;78.22
216;BME280;64590;48.81286795;9.14184224;2022-12-20T09:29:06;98522.59;;;5.84;77.94
216;BME280;64590;48.81286795;9.14184224;2022-12-20T09:31:33;98512.81;;;5.71;78.54
216;BME280;64590;48.81286795;9.14184224;2022-12-20T09:33:59;98518.84;;;5.61;79.26
216;BME280;64590;48.81286795;9.14184224;2022-12-20T09:36:27;98533.97;;;5.67;79.77
216;BME280;64590;48.81286795;9.14184224;2022-12-20T09:38:54;98520.19;;;5.67;79.35
216;BME280;64590;48.81286795;9.14184224;2022-12-20T09:41:27;98505.88;;;6.09;78.22
216;BME280;64590;48.81286795;9.14184224;2022-12-20T09:43:54;98505.28;;;6.00;78.37
216;BME280;64590;48.81286795;9.14184224;2022-12-20T09:46:23;98511.13;;;5.82;79.27
216;BME280;64590;48.81286795;9.14184224;2022-12-20T09:48:51;98495.66;;;5.78;80.27
216;BME280;64590;48.81286795;9.14184224;2022-12-20T09:51:35;98496.47;;;5.94;79.37
216;BME280;64590;48.81286795;9.14184224;2022-12-20T09:54:17;98497.50;;;6.05;78.79
216;BME280;64590;48.81286795;9.14184224;2022-12-20T09:56:53;98482.84;;;5.85;79.59
216;BME280;64590;48.81286795;9.14184224;2022-12-20T09:59:22;98485.91;;;6.50;77.31
216;BME280;64590;48.81286795;9.14184224;2022-12-20T10:01:50;98474.22;;;6.57;77.26
216;BME280;64590;48.81286795;9.14184224;2022-12-20T10:04:21;98471.03;;;6.74;76.24
216;BME280;64590;48.81286795;9.14184224;2022-12-20T10:06:58;98470.25;;;6.55;76.66
216;BME280;64590;48.81286795;9.14184224;2022-12-20T10:09:45;98461.59;;;6.75;75.92
216;BME280;64590;48.81286795;9.14184224;2022-12-20T10:12:21;98479.66;;;6.92;74.95
216;BME280;64590;48.81286795;9.14184224;2022-12-20T10:15:00;98471.88;;;6.98;74.54
216;BME280;64590;48.81286795;9.14184224;2022-12-20T10:17:48;98475.31;;;6.72;76.45
216;BME280;64590;48.81286795;9.14184224;2022-12-20T10:20:29;98481.03;;;6.83;75.96
216;BME280;64590;48.81286795;9.14184224;2022-12-20T10:23:01;98468.41;;;6.82;76.01
216;BME280;64590;48.81286795;9.14184224;2022-12-20T10:25:31;98469.59;;;7.03;75.22
216;BME280;64590;48.81286795;9.14184224;2022-12-20T10:28:00;98470.22;;;6.74;76.12
216;BME280;64590;48.81286795;9.14184224;2022-12-20T10:30:28;98459.16;;;6.93;75.18
216;BME280;64590;48.81286795;9.14184224;2022-12-20T10:32:58;98463.91;;;6.73;76.78
216;BME280;64590;48.81286795;9.14184224;2022-12-20T10:35:27;98468.25;;;6.94;75.83
216;BME280;64590;48.81286795;9.14184224;2022-12-20T10:38:00;98462.81;;;7.20;74.13
216;BME280;64590;48.81286795;9.14184224;2022-12-20T10:40:29;98446.81;;;7.06;74.89
216;BME280;64590;48.81286795;9.14184224;2022-12-20T10:42:56;98451.13;;;6.85;75.59
216;BME280;64590;48.81286795;9.14184224;2022-12-20T10:45:30;98454.28;;;6.64;77.09
216;BME280;64590;48.81286795;9.14184224;2022-12-20T10:48:01;98453.38;;;6.40;77.99
216;BME280;64590;48.81286795;9.14184224;2022-12-20T10:50:29;98459.53;;;6.34;77.92
216;BME280;64590;48.81286795;9.14184224;2022-12-20T10:53:19;98446.66;;;6.38;77.71
216;BME280;64590;48.81286795;9.14184224;2022-12-20T10:55:47;98446.81;;;6.45;77.55
216;BME280;64590;48.81286795;9.14184224;2022-12-20T10:58:16;98441.66;;;6.43;77.88
216;BME280;64590;48.81286795;9.14184224;2022-12-20T11:00:43;98435.25;;;6.39;77.88
216;BME280;64590;48.81286795;9.14184224;2022-12-20T11:03:15;98437.44;;;6.49;77.77
216;BME280;64590;48.81286795;9.14184224;2022-12-20T11:05:54;98440.13;;;6.65;77.15
216;BME280;64590;48.81286795;9.14184224;2022-12-20T11:08:22;98427.31;;;6.96;75.78
216;BME280;64590;48.81286795;9.14184224;2022-12-20T11:11:09;98432.13;;;7.02;75.05
216;BME280;64590;48.81286795;9.14184224;2022-12-20T11:13:37;98430.22;;;6.84;76.05
216;BME280;64590;48.81286795;9.14184224;2022-12-20T11:16:04;98425.06;;;6.82;76.53
216;BME280;64590;48.81286795;9.14184224;2022-12-20T11:18:40;98426.84;;;6.71;77.21
216;BME280;64590;48.81286795;9.14184224;2022-12-20T11:21:16;98418.78;;;6.62;77.78
216;BME280;64590;48.81286795;9.14184224;2022-12-20T11:23:53;98418.69;;;6.59;78.12
216;BME280;64590;48.81286795;9.14184224;2022-12-20T11:26:32;98417.59;;;6.83;77.40
216;BME280;64590;48.81286795;9.14184224;2022-12-20T11:29:10;98410.66;;;6.92;76.81
216;BME280;64590;48.81286795;9.14184224;2022-12-20T11:31:50;98408.28;;;6.91;76.72
216;BME280;64590;48.81286795;9.14184224;2022-12-20T11:34:33;98402.81;;;6.71;76.99
216;BME280;64590;48.81286795;9.14184224;2022-12-20T11:37:13;98399.22;;;7.13;75.91
216;BME280;64590;48.81286795;9.14184224;2022-12-20T11:39:59;98402.75;;;6.91;76.18
216;BME280;64590;48.81286795;9.14184224;2022-12-20T11:42:41;98397.84;;;6.80;77.39
216;BME280;64590;48.81286795;9.14184224;2022-12-20T11:45:20;98385.50;;;6.74;77.16
216;BME280;64590;48.81286795;9.14184224;2022-12-20T11:48:00;98365.78;;;7.18;75.34
216;BME280;64590;48.81286795;9.14184224;2022-12-20T11:50:48;98371.25;;;7.15;75.25
216;BME280;64590;48.81286795;9.14184224;2022-12-20T11:53:22;98369.88;;;7.54;73.45
216;BME280;64590;48.81286795;9.14184224;2022-12-20T11:55:53;98353.44;;;7.12;75.21
216;BME280;64590;48.81286795;9.14184224;2022-12-20T11:58:25;98348.16;;;7.03;75.62
216;BME280;64590;48.81286795;9.14184224;2022-12-20T12:00:57;98348.06;;;6.96;75.92
216;BME280;64590;48.81286795;9.14184224;2022-12-20T12:03:29;98360.06;;;7.30;74.52
216;BME280;64590;48.81286795;9.14184224;2022-12-20T12:06:02;98371.41;;;7.25;74.83
216;BME280;64590;48.81286795;9.14184224;2022-12-20T12:08:37;98382.28;;;7.15;75.97